sensor_id;sensor_type;location;lat;lon;timestamp;pressure;altitude;pressure_sealevel;temperature;humidity
18500;BME280;9379;52.134;11.576;2023-02-12T00:01:20;102856.28;;;10.68;100.00
18500;BME280;9379;52.134;11.576;2023-02-12T00:03:49;102851.81;;;10.68;100.00
18500;BME280;9379;52.134;11.576;2023-02-12T00:06:16;102850.34;;;10.96;100.00
18500;BME280;9379;52.134;11.576;2023-02-12T00:08:43;102854.31;;;11.04;100.00
18500;BME280;9379;52.134;11.576;2023-02-12T00:11:11;102852.66;;;10.69;100.00
18500;BME280;9379;52.134;11.576;2023-02-12T00:13:38;102849.53;;;10.61;100.00
18500;BME280;9379;52.134;11.576;2023-02-12T00:16:07;102853.66;;;10.99;100.00
18500;BME280;9379;52.134;11.576;2023-02-12T00:21:11;102871.75;;;10.77;100.00
18500;BME280;9379;52.134;11.576;2023-02-12T00:23:39;102877.78;;;10.63;100.00
18500;BME280;9379;52.134;11.576;2023-02-12T00:29:22;102858.41;;;11.10;100.00
18500;BME280;9379;52.134;11.576;2023-02-12T00:31:49;102871.31;;;11.18;100.00
18500;BME280;9379;52.134;11.576;2023-02-12T00:34:16;102865.53;;;11.09;100.00
18500;BME280;9379;52.134;11.576;2023-02-12T00:36:44;102874.09;;;10.99;100.00
18500;BME280;9379;52.134;11.576;2023-02-12T00:39:11;102864.25;;;11.01;100.00
18500;BME280;9379;52.134;11.576;2023-02-12T00:41:38;102868.56;;;11.03;100.00
18500;BME280;9379;52.134;11.576;2023-02-12T00:47:26;102867.81;;;10.84;100.00
18500;BME280;9379;52.134;11.576;2023-02-12T00:49:54;102879.91;;;10.57;100.00
18500;BME280;9379;52.134;11.576;2023-02-12T00:52:22;102877.94;;;10.77;100.00
18500;BME280;9379;52.134;11.576;2023-02-12T00:54:49;102867.94;;;10.65;100.00
18500;BME280;9379;52.134;11.576;2023-02-12T00:57:16;102866.00;;;10.34;100.00
18500;BME280;9379;52.134;11.576;2023-02-12T00:59:43;102882.94;;;10.49;100.00
18500;BME280;9379;52.134;11.576;2023-02-12T01:02:10;102859.66;;;10.54;100.00
18500;BME280;9379;52.134;11.576;2023-02-12T01:04:37;102850.13;;;10.33;100.00
18500;BME280;9379;52.134;11.576;2023-02-12T01:07:04;102883.72;;;10.68;100.00
18500;BME280;9379;52.134;11.576;2023-02-12T01:09:33;102842.75;;;10.20;100.00
18500;BME280;9379;52.134;11.576;2023-02-12T01:11:59;102880.53;;;10.44;100.00
18500;BME280;9379;52.134;11.576;2023-02-12T01:14:26;102871.28;;;10.69;100.00
18500;BME280;9379;52.134;11.576;2023-02-12T01:16:54;102863.69;;;10.61;100.00
18500;BME280;9379;52.134;11.576;2023-02-12T01:19:21;102866.84;;;10.52;100.00
18500;BME280;9379;52.134;11.576;2023-02-12T01:21:47;102886.44;;;10.84;100.00
18500;BME280;9379;52.134;11.576;2023-02-12T01:24:14;102874.47;;;10.75;100.00
18500;BME280;9379;52.134;11.576;2023-02-12T01:26:43;102862.94;;;10.25;100.00
18500;BME280;9379;52.134;11.576;2023-02-12T01:29:10;102856.06;;;10.55;100.00
18500;BME280;9379;52.134;11.576;2023-02-12T01:31:38;102880.75;;;10.40;100.00
18500;BME280;9379;52.134;11.576;2023-02-12T01:34:07;102854.25;;;10.38;100.00
18500;BME280;9379;52.134;11.576;2023-02-12T01:36:34;102879.34;;;10.67;100.00
18500;BME280;9379;52.134;11.576;2023-02-12T01:39:01;102876.69;;;10.50;100.00
18500;BME280;9379;52.134;11.576;2023-02-12T01:41:33;102878.31;;;10.70;100.00
18500;BME280;9379;52.134;11.576;2023-02-12T01:44:12;102850.66;;;10.57;100.00
18500;BME280;9379;52.134;11.576;2023-02-12T01:46:40;102865.97;;;10.51;100.00
18500;BME280;9379;52.134;11.576;2023-02-12T01:49:11;102868.41;;;10.56;100.00
18500;BME280;9379;52.134;11.576;2023-02-12T01:51:40;102870.03;;;10.41;100.00
18500;BME280;9379;52.134;11.576;2023-02-12T01:54:09;102846.91;;;10.43;100.00
18500;BME280;9379;52.134;11.576;2023-02-12T01:56:38;102857.06;;;10.52;100.00
18500;BME280;9379;52.134;11.576;2023-02-12T01:59:05;102864.66;;;10.43;100.00
18500;BME280;9379;52.134;11.576;2023-02-12T02:01:34;102858.41;;;10.44;100.00
18500;BME280;9379;52.134;11.576;2023-02-12T02:04:04;102854.63;;;10.13;100.00
18500;BME280;9379;52.134;11.576;2023-02-12T02:06:35;102836.44;;;10.23;100.00
18500;BME280;9379;52.134;11.576;2023-02-12T02:09:04;102841.59;;;10.26;100.00
18500;BME280;9379;52.134;11.576;2023-02-12T02:11:31;102836.53;;;10.21;100.00
18500;BME280;9379;52.134;11.576;2023-02-12T02:14:16;102867.84;;;10.49;100.00
18500;BME280;9379;52.134;11.576;2023-02-12T02:17:12;102872.66;;;10.43;100.00
18500;BME280;9379;52.134;11.576;2023-02-12T02:20:00;102864.09;;;10.36;100.00
18500;BME280;9379;52.134;11.576;2023-02-12T02:22:38;102871.13;;;10.72;100.00
18500;BME280;9379;52.134;11.576;2023-02-12T02:25:35;102880.75;;;10.57;100.00
18500;BME280;9379;52.134;11.576;2023-02-12T02:28:24;102851.84;;;10.34;100.00
18500;BME280;9379;52.134;11.576;2023-02-12T02:31:03;102850.09;;;10.67;100.00
18500;BME280;9379;52.134;11.576;2023-02-12T02:33:37;102870.16;;;10.90;100.00
18500;BME280;9379;52.134;11.576;2023-02-12T02:36:13;102857.44;;;10.10;100.00
18500;BME280;9379;52.134;11.576;2023-02-12T02:38:47;102877.97;;;10.76;100.00
18500;BME280;9379;52.134;11.576;2023-02-12T02:41:20;102867.03;;;10.82;100.00
18500;BME280;9379;52.134;11.576;2023-02-12T02:43:52;102869.28;;;10.57;100.00
18500;BME280;9379;52.134;11.576;2023-02-12T02:46:26;102843.84;;;10.68;100.00
18500;BME280;9379;52.134;11.576;2023-02-12T02:48:59;102873.94;;;10.69;100.00
18500;BME280;9379;52.134;11.576;2023-02-12T02:51:30;102867.78;;;10.68;100.00
18500;BME280;9379;52.134;11.576;2023-02-12T02:54:04;102887.31;;;10.50;100.00
18500;BME280;9379;52.134;11.576;2023-02-12T02:56:33;102871.41;;;10.14;100.00
18500;BME280;9379;52.134;11.576;2023-02-12T02:59:04;102879.16;;;10.18;100.00
18500;BME280;9379;52.134;11.576;2023-02-12T03:01:39;102861.38;;;10.38;100.00
18500;BME280;9379;52.134;11.576;2023-02-12T03:04:09;102863.47;;;10.48;100.00
18500;BME280;9379;52.134;11.576;2023-02-12T03:06:41;102868.06;;;10.79;100.00
18500;BME280;9379;52.134;11.576;2023-02-12T03:09:14;102881.66;;;10.73;100.00
18500;BME280;9379;52.134;11.576;2023-02-12T03:11:43;102907.25;;;10.93;100.00
18500;BME280;9379;52.134;11.576;2023-02-12T03:14:12;102885.22;;;11.07;100.00
18500;BME280;9379;52.134;11.576;2023-02-12T03:16:50;102890.06;;;10.99;100.00
18500;BME280;9379;52.134;11.576;2023-02-12T03:19:21;102907.97;;;10.79;100.00
18500;BME280;9379;52.134;11.576;2023-02-12T03:21:54;102890.38;;;10.60;100.00
18500;BME280;9379;52.134;11.576;2023-02-12T03:24:27;102907.59;;;10.70;100.00
18500;BME280;9379;52.134;11.576;2023-02-12T03:26:58;102908.81;;;10.80;100.00
18500;BME280;9379;52.134;11.576;2023-02-12T03:29:29;102909.38;;;10.52;100.00
18500;BME280;9379;52.134;11.576;2023-02-12T03:32:15;102896.31;;;10.47;100.00
18500;BME280;9379;52.134;11.576;2023-02-12T03:34:50;102901.25;;;10.55;100.00
18500;BME280;9379;52.134;11.576;2023-02-12T03:37:28;102915.81;;;10.65;100.00
18500;BME280;9379;52.134;11.576;2023-02-12T03:39:59;102937.38;;;10.94;100.00
18500;BME280;9379;52.134;11.576;2023-02-12T03:42:34;102912.56;;;10.76;100.00
18500;BME280;9379;52.134;11.576;2023-02-12T03:45:09;102937.16;;;10.46;100.00
18500;BME280;9379;52.134;11.576;2023-02-12T03:47:45;102909.16;;;10.57;100.00
18500;BME280;9379;52.134;11.576;2023-02-12T03:50:16;102939.56;;;10.34;100.00
18500;BME280;9379;52.134;11.576;2023-02-12T03:52:46;102935.25;;;10.48;100.00
18500;BME280;9379;52.134;11.576;2023-02-12T03:55:15;102911.41;;;10.30;100.00
18500;BME280;9379;52.134;11.576;2023-02-12T03:57:45;102919.03;;;10.55;100.00
18500;BME280;9379;52.134;11.576;2023-02-12T04:00:17;102910.00;;;10.40;100.00
18500;BME280;9379;52.134;11.576;2023-02-12T04:02:46;102913.84;;;10.51;100.00
18500;BME280;9379;52.134;11.576;2023-02-12T04:05:18;102900.69;;;10.48;100.00
18500;BME280;9379;52.134;11.576;2023-02-12T04:07:46;102942.06;;;10.71;100.00
18500;BME280;9379;52.134;11.576;2023-02-12T04:10:13;102931.56;;;10.86;100.00
18500;BME280;9379;52.134;11.576;2023-02-12T04:12:47;102924.66;;;10.66;100.00
18500;BME280;9379;52.134;11.576;2023-02-12T04:15:32;102937.31;;;10.78;100.00
18500;BME280;9379;52.134;11.576;2023-02-12T04:18:08;102925.47;;;10.84;100.00
18500;BME280;9379;52.134;11.576;2023-02-12T04:20:48;102949.72;;;10.95;100.00
18500;BME280;9379;52.134;11.576;2023-02-12T04:23:33;102960.91;;;11.01;100.00
18500;BME280;9379;52.134;11.576;2023-02-12T04:26:09;102948.88;;;10.60;100.00
18500;BME280;9379;52.134;11.576;2023-02-12T04:28:50;102923.22;;;10.24;100.00
18500;BME280;9379;52.134;11.576;2023-02-12T04:31:23;102956.28;;;10.53;100.00
18500;BME280;9379;52.134;11.576;2023-02-12T04:34:03;102927.59;;;10.60;100.00
18500;BME280;9379;52.134;11.576;2023-02-12T04:36:36;102961.38;;;10.75;100.00
18500;BME280;9379;52.134;11.576;2023-02-12T04:39:07;102956.16;;;10.56;100.00
18500;BME280;9379;52.134;11.576;2023-02-12T04:41:39;102968.81;;;10.51;100.00
18500;BME280;9379;52.134;11.576;2023-02-12T04:44:15;102931.09;;;10.07;100.00
18500;BME280;9379;52.134;11.576;2023-02-12T04:46:42;102964.88;;;10.41;100.00
18500;BME280;9379;52.134;11.576;2023-02-12T04:49:14;102950.38;;;10.48;100.00
18500;BME280;9379;52.134;11.576;2023-02-12T04:51:42;102952.78;;;10.70;100.00
18500;BME280;9379;52.134;11.576;2023-02-12T04:54:09;102943.63;;;10.41;100.00
18500;BME280;9379;52.134;11.576;2023-02-12T04:56:36;102934.66;;;10.43;100.00
18500;BME280;9379;52.134;11.576;2023-02-12T04:59:04;102942.31;;;10.32;100.00
18500;BME280;9379;52.134;11.576;2023-02-12T05:01:32;102958.25;;;10.32;100.00
18500;BME280;9379;52.134;11.576;2023-02-12T05:04:00;102946.53;;;10.36;100.00
18500;BME280;9379;52.134;11.576;2023-02-12T05:06:29;102965.03;;;10.38;100.00
18500;BME280;9379;52.134;11.576;2023-02-12T05:08:59;102978.38;;;10.55;100.00
18500;BME280;9379;52.134;11.576;2023-02-12T05:11:26;102962.88;;;10.63;100.00
18500;BME280;9379;52.134;11.576;2023-02-12T05:13:53;102934.78;;;10.75;100.00
18500;BME280;9379;52.134;11.576;2023-02-12T05:16:20;102964.38;;;10.69;100.00
18500;BME280;9379;52.134;11.576;2023-02-12T05:18:47;102943.63;;;10.75;100.00
18500;BME280;9379;52.134;11.576;2023-02-12T05:21:15;102973.34;;;10.49;100.00
18500;BME280;9379;52.134;11.576;2023-02-12T05:23:43;102965.47;;;10.47;100.00
18500;BME280;9379;52.134;11.576;2023-02-12T05:26:12;102981.91;;;10.90;100.00
18500;BME280;9379;52.134;11.576;2023-02-12T05:28:40;102958.19;;;10.51;100.00
18500;BME280;9379;52.134;11.576;2023-02-12T05:31:09;102968.13;;;10.82;100.00
18500;BME280;9379;52.134;11.576;2023-02-12T05:33:36;102965.91;;;10.38;100.00
18500;BME280;9379;52.134;11.576;2023-02-12T05:36:04;102942.31;;;10.13;100.00
18500;BME280;9379;52.134;11.576;2023-02-12T05:38:32;102963.66;;;10.12;100.00
18500;BME280;9379;52.134;11.576;2023-02-12T05:41:04;102970.22;;;10.41;100.00
18500;BME280;9379;52.134;11.576;2023-02-12T05:43:32;102975.16;;;10.83;100.00
18500;BME280;9379;52.134;11.576;2023-02-12T05:46:00;102944.88;;;10.34;100.00
18500;BME280;9379;52.134;11.576;2023-02-12T05:48:28;102970.16;;;10.60;100.00
18500;BME280;9379;52.134;11.576;2023-02-12T05:51:00;102978.44;;;10.71;100.00
18500;BME280;9379;52.134;11.576;2023-02-12T05:53:27;102963.66;;;10.82;100.00
18500;BME280;9379;52.134;11.576;2023-02-12T05:55:54;102986.19;;;10.75;100.00
18500;BME280;9379;52.134;11.576;2023-02-12T05:58:32;102983.16;;;10.83;100.00
18500;BME280;9379;52.134;11.576;2023-02-12T06:00:59;102989.00;;;10.72;100.00
18500;BME280;9379;52.134;11.576;2023-02-12T06:03:26;102995.59;;;10.82;100.00
18500;BME280;9379;52.134;11.576;2023-02-12T06:05:53;103012.44;;;11.00;100.00
18500;BME280;9379;52.134;11.576;2023-02-12T06:08:20;103015.69;;;11.05;100.00
18500;BME280;9379;52.134;11.576;2023-02-12T06:10:47;102975.63;;;10.91;100.00
18500;BME280;9379;52.134;11.576;2023-02-12T06:13:14;102998.63;;;11.09;100.00
18500;BME280;9379;52.134;11.576;2023-02-12T06:15:42;102994.88;;;10.96;100.00
18500;BME280;9379;52.134;11.576;2023-02-12T06:18:09;103025.47;;;10.88;100.00
18500;BME280;9379;52.134;11.576;2023-02-12T06:20:37;103022.03;;;11.03;100.00
18500;BME280;9379;52.134;11.576;2023-02-12T06:23:04;102998.25;;;10.82;100.00
18500;BME280;9379;52.134;11.576;2023-02-12T06:25:31;103020.00;;;10.91;100.00
18500;BME280;9379;52.134;11.576;2023-02-12T06:27:58;102988.78;;;10.77;100.00
18500;BME280;9379;52.134;11.576;2023-02-12T06:30:25;103019.00;;;10.93;100.00
18500;BME280;9379;52.134;11.576;2023-02-12T06:32:54;103008.31;;;10.76;100.00
18500;BME280;9379;52.134;11.576;2023-02-12T06:35:21;103023.38;;;10.94;100.00
18500;BME280;9379;52.134;11.576;2023-02-12T06:37:48;103027.97;;;11.08;100.00
18500;BME280;9379;52.134;11.576;2023-02-12T06:40:15;103023.69;;;11.05;100.00
18500;BME280;9379;52.134;11.576;2023-02-12T06:42:42;103038.25;;;11.16;100.00
18500;BME280;9379;52.134;11.576;2023-02-12T06:45:09;103045.44;;;11.14;100.00
18500;BME280;9379;52.134;11.576;2023-02-12T06:47:36;103042.28;;;11.23;100.00
18500;BME280;9379;52.134;11.576;2023-02-12T06:50:06;103052.56;;;11.13;100.00
18500;BME280;9379;52.134;11.576;2023-02-12T06:52:32;103048.88;;;11.16;100.00
18500;BME280;9379;52.134;11.576;2023-02-12T06:54:59;103050.56;;;11.34;99.74
18500;BME280;9379;52.134;11.576;2023-02-12T06:57:27;103051.13;;;11.40;99.28
18500;BME280;9379;52.134;11.576;2023-02-12T06:59:54;103056.06;;;11.31;99.44
18500;BME280;9379;52.134;11.576;2023-02-12T07:02:21;103057.56;;;11.36;99.43
18500;BME280;9379;52.134;11.576;2023-02-12T07:04:47;103062.13;;;11.17;100.00
18500;BME280;9379;52.134;11.576;2023-02-12T07:07:16;103052.66;;;11.12;100.00
18500;BME280;9379;52.134;11.576;2023-02-12T07:09:42;103066.97;;;10.92;100.00
18500;BME280;9379;52.134;11.576;2023-02-12T07:12:09;103059.44;;;10.65;100.00
18500;BME280;9379;52.134;11.576;2023-02-12T07:14:39;103062.34;;;10.78;100.00
18500;BME280;9379;52.134;11.576;2023-02-12T07:17:05;103070.69;;;10.88;100.00
18500;BME280;9379;52.134;11.576;2023-02-12T07:19:34;103066.22;;;10.54;100.00
18500;BME280;9379;52.134;11.576;2023-02-12T07:22:01;103072.47;;;10.34;100.00
18500;BME280;9379;52.134;11.576;2023-02-12T07:24:29;103076.50;;;10.23;100.00
18500;BME280;9379;52.134;11.576;2023-02-12T07:26:56;103065.28;;;10.55;100.00
18500;BME280;9379;52.134;11.576;2023-02-12T07:29:22;103073.53;;;10.48;100.00
18500;BME280;9379;52.134;11.576;2023-02-12T07:31:49;103077.84;;;10.51;100.00
18500;BME280;9379;52.134;11.576;2023-02-12T07:34:16;103076.38;;;10.63;100.00
18500;BME280;9379;52.134;11.576;2023-02-12T07:36:43;103080.41;;;10.52;100.00
18500;BME280;9379;52.134;11.576;2023-02-12T07:39:11;103083.97;;;10.34;100.00
18500;BME280;9379;52.134;11.576;2023-02-12T07:41:39;103095.66;;;10.30;100.00
18500;BME280;9379;52.134;11.576;2023-02-12T07:44:07;103091.13;;;10.51;100.00
18500;BME280;9379;52.134;11.576;2023-02-12T07:46:37;103101.31;;;10.60;100.00
18500;BME280;9379;52.134;11.576;2023-02-12T07:49:05;103092.06;;;10.69;100.00
18500;BME280;9379;52.134;11.576;2023-02-12T07:51:36;103102.78;;;10.85;100.00
18500;BME280;9379;52.134;11.576;2023-02-12T07:54:03;103105.44;;;10.67;100.00
18500;BME280;9379;52.134;11.576;2023-02-12T07:56:32;103115.63;;;10.20;100.00
18500;BME280;9379;52.134;11.576;2023-02-12T07:59:03;103113.47;;;10.09;100.00
18500;BME280;9379;52.134;11.576;2023-02-12T08:01:32;103113.13;;;10.36;100.00
18500;BME280;9379;52.134;11.576;2023-02-12T08:04:00;103117.81;;;10.31;100.00
18500;BME280;9379;52.134;11.576;2023-02-12T08:06:29;103103.72;;;10.66;100.00
18500;BME280;9379;52.134;11.576;2023-02-12T08:08:58;103119.09;;;10.41;100.00
18500;BME280;9379;52.134;11.576;2023-02-12T08:11:25;103122.63;;;10.22;100.00
18500;BME280;9379;52.134;11.576;2023-02-12T08:13:52;103123.97;;;10.69;100.00
18500;BME280;9379;52.134;11.576;2023-02-12T08:16:23;103117.63;;;10.15;100.00
18500;BME280;9379;52.134;11.576;2023-02-12T08:18:50;103116.28;;;10.25;100.00
18500;BME280;9379;52.134;11.576;2023-02-12T08:21:19;103122.25;;;10.49;100.00
18500;BME280;9379;52.134;11.576;2023-02-12T08:23:47;103131.44;;;10.79;100.00
18500;BME280;9379;52.134;11.576;2023-02-12T08:26:16;103126.94;;;11.16;100.00
18500;BME280;9379;52.134;11.576;2023-02-12T08:28:45;103126.16;;;11.31;99.54
18500;BME280;9379;52.134;11.576;2023-02-12T08:31:14;103132.97;;;11.54;98.05
18500;BME280;9379;52.134;11.576;2023-02-12T08:33:45;103129.66;;;11.66;97.35
18500;BME280;9379;52.134;11.576;2023-02-12T08:36:12;103105.00;;;11.46;96.68
18500;BME280;9379;52.134;11.576;2023-02-12T08:38:40;103129.22;;;11.41;97.18
18500;BME280;9379;52.134;11.576;2023-02-12T08:41:09;103131.09;;;11.39;97.32
18500;BME280;9379;52.134;11.576;2023-02-12T08:43:36;103142.84;;;11.35;98.34
18500;BME280;9379;52.134;11.576;2023-02-12T08:46:04;103140.09;;;11.19;98.66
18500;BME280;9379;52.134;11.576;2023-02-12T08:48:32;103154.94;;;11.06;99.24
18500;BME280;9379;52.134;11.576;2023-02-12T08:51:05;103150.91;;;10.61;100.00
18500;BME280;9379;52.134;11.576;2023-02-12T08:53:32;103163.44;;;10.78;99.89
18500;BME280;9379;52.134;11.576;2023-02-12T08:55:59;103154.72;;;10.74;100.00
18500;BME280;9379;52.134;11.576;2023-02-12T08:58:26;103156.59;;;10.72;99.74
18500;BME280;9379;52.134;11.576;2023-02-12T09:00:53;103162.09;;;11.23;98.92
18500;BME280;9379;52.134;11.576;2023-02-12T09:03:20;103163.44;;;11.14;98.16
18500;BME280;9379;52.134;11.576;2023-02-12T09:05:46;103156.50;;;11.10;98.49
18500;BME280;9379;52.134;11.576;2023-02-12T09:08:14;103168.34;;;11.22;98.60
18500;BME280;9379;52.134;11.576;2023-02-12T09:10:42;103174.38;;;11.08;98.20
18500;BME280;9379;52.134;11.576;2023-02-12T09:13:11;103174.41;;;11.25;97.40
18500;BME280;9379;52.134;11.576;2023-02-12T09:15:40;103171.91;;;11.74;96.18
18500;BME280;9379;52.134;11.576;2023-02-12T09:18:07;103172.44;;;11.63;96.24
18500;BME280;9379;52.134;11.576;2023-02-12T09:20:36;103170.66;;;11.64;96.20
18500;BME280;9379;52.134;11.576;2023-02-12T09:23:04;103178.00;;;11.24;98.09
18500;BME280;9379;52.134;11.576;2023-02-12T09:25:33;103181.88;;;11.71;96.45
18500;BME280;9379;52.134;11.576;2023-02-12T09:28:00;103178.09;;;11.92;95.47
18500;BME280;9379;52.134;11.576;2023-02-12T09:30:27;103179.59;;;12.13;94.28
18500;BME280;9379;52.134;11.576;2023-02-12T09:32:54;103179.50;;;11.30;97.25
18500;BME280;9379;52.134;11.576;2023-02-12T09:35:21;103181.31;;;11.64;95.57
18500;BME280;9379;52.134;11.576;2023-02-12T09:37:48;103186.66;;;11.81;95.13
18500;BME280;9379;52.134;11.576;2023-02-12T09:40:19;103189.13;;;12.02;94.76
18500;BME280;9379;52.134;11.576;2023-02-12T09:43:04;103192.56;;;12.04;94.58
18500;BME280;9379;52.134;11.576;2023-02-12T09:45:37;103188.91;;;11.89;94.95
18500;BME280;9379;52.134;11.576;2023-02-12T09:48:21;103189.25;;;11.83;95.15
18500;BME280;9379;52.134;11.576;2023-02-12T09:50:51;103188.56;;;11.78;96.03
18500;BME280;9379;52.134;11.576;2023-02-12T09:53:24;103195.22;;;11.69;96.52
18500;BME280;9379;52.134;11.576;2023-02-12T09:55:53;103196.88;;;11.54;96.12
18500;BME280;9379;52.134;11.576;2023-02-12T09:58:28;103197.47;;;11.07;97.81
18500;BME280;9379;52.134;11.576;2023-02-12T10:00:56;103200.56;;;11.52;96.81
18500;BME280;9379;52.134;11.576;2023-02-12T10:03:25;103192.59;;;11.52;95.85
18500;BME280;9379;52.134;11.576;2023-02-12T10:05:57;103200.66;;;11.67;95.52
18500;BME280;9379;52.134;11.576;2023-02-12T10:11:51;103200.16;;;12.44;93.28
18500;BME280;9379;52.134;11.576;2023-02-12T10:17:39;103210.16;;;11.90;94.54
18500;BME280;9379;52.134;11.576;2023-02-12T10:20:47;103208.59;;;11.86;94.48
18500;BME280;9379;52.134;11.576;2023-02-12T10:23:32;103207.78;;;12.35;93.63
18500;BME280;9379;52.134;11.576;2023-02-12T10:26:04;103209.19;;;12.09;94.47
18500;BME280;9379;52.134;11.576;2023-02-12T10:28:38;103205.00;;;12.53;92.52
18500;BME280;9379;52.134;11.576;2023-02-12T10:31:10;103205.53;;;12.76;91.91
18500;BME280;9379;52.134;11.576;2023-02-12T10:33:43;103197.00;;;12.69;91.75
18500;BME280;9379;52.134;11.576;2023-02-12T10:36:15;103206.81;;;13.00;90.70
18500;BME280;9379;52.134;11.576;2023-02-12T10:38:48;103192.63;;;12.19;92.13
18500;BME280;9379;52.134;11.576;2023-02-12T10:41:16;103207.66;;;12.53;92.27
18500;BME280;9379;52.134;11.576;2023-02-12T10:43:43;103208.66;;;12.35;92.60
18500;BME280;9379;52.134;11.576;2023-02-12T10:46:13;103207.56;;;12.71;91.36
18500;BME280;9379;52.134;11.576;2023-02-12T10:48:44;103209.88;;;12.61;91.54
18500;BME280;9379;52.134;11.576;2023-02-12T10:51:24;103200.53;;;12.54;91.60
18500;BME280;9379;52.134;11.576;2023-02-12T10:53:55;103198.88;;;12.67;90.69
18500;BME280;9379;52.134;11.576;2023-02-12T10:56:23;103193.91;;;13.08;90.00
18500;BME280;9379;52.134;11.576;2023-02-12T10:58:53;103194.13;;;13.04;89.82
18500;BME280;9379;52.134;11.576;2023-02-12T11:01:23;103180.53;;;13.24;89.42
18500;BME280;9379;52.134;11.576;2023-02-12T11:03:53;103178.53;;;13.28;88.80
18500;BME280;9379;52.134;11.576;2023-02-12T11:06:22;103167.25;;;13.53;88.93
18500;BME280;9379;52.134;11.576;2023-02-12T11:08:50;103163.97;;;13.33;89.63
18500;BME280;9379;52.134;11.576;2023-02-12T11:11:19;103171.09;;;13.63;89.39
18500;BME280;9379;52.134;11.576;2023-02-12T11:13:53;103173.53;;;13.82;88.14
18500;BME280;9379;52.134;11.576;2023-02-12T11:16:31;103168.28;;;13.80;87.90
18500;BME280;9379;52.134;11.576;2023-02-12T11:19:02;103167.66;;;13.61;88.53
18500;BME280;9379;52.134;11.576;2023-02-12T11:21:30;103164.66;;;13.37;87.85
18500;BME280;9379;52.134;11.576;2023-02-12T11:24:21;103167.47;;;13.64;88.25
18500;BME280;9379;52.134;11.576;2023-02-12T11:26:48;103175.44;;;13.04;89.21
18500;BME280;9379;52.134;11.576;2023-02-12T11:29:19;103173.84;;;12.85;90.72
18500;BME280;9379;52.134;11.576;2023-02-12T11:31:59;103171.19;;;12.85;90.49
18500;BME280;9379;52.134;11.576;2023-02-12T11:34:28;103169.25;;;13.19;89.19
18500;BME280;9379;52.134;11.576;2023-02-12T11:36:55;103157.41;;;13.39;88.73
18500;BME280;9379;52.134;11.576;2023-02-12T11:39:26;103149.09;;;13.13;89.85
18500;BME280;9379;52.134;11.576;2023-02-12T11:41:54;103150.16;;;13.41;88.69
18500;BME280;9379;52.134;11.576;2023-02-12T11:44:24;103153.72;;;13.26;89.10
18500;BME280;9379;52.134;11.576;2023-02-12T11:46:55;103157.53;;;13.22;89.62
18500;BME280;9379;52.134;11.576;2023-02-12T11:49:28;103165.00;;;13.31;89.55
18500;BME280;9379;52.134;11.576;2023-02-12T11:51:56;103147.25;;;13.30;88.51
18500;BME280;9379;52.134;11.576;2023-02-12T11:54:28;103138.19;;;12.87;89.69
18500;BME280;9379;52.134;11.576;2023-02-12T11:56:56;103156.53;;;12.77;89.66
18500;BME280;9379;52.134;11.576;2023-02-12T11:59:30;103160.41;;;12.55;91.10
18500;BME280;9379;52.134;11.576;2023-02-12T12:02:03;103151.41;;;12.09;93.40
18500;BME280;9379;52.134;11.576;2023-02-12T12:04:33;103155.00;;;12.57;92.40
18500;BME280;9379;52.134;11.576;2023-02-12T12:07:06;103162.31;;;12.69;91.26
18500;BME280;9379;52.134;11.576;2023-02-12T12:09:41;103151.28;;;12.44;92.26
18500;BME280;9379;52.134;11.576;2023-02-12T12:12:14;103153.16;;;12.89;91.24
18500;BME280;9379;52.134;11.576;2023-02-12T12:14:45;103152.69;;;13.12;90.25
18500;BME280;9379;52.134;11.576;2023-02-12T12:17:39;103152.19;;;13.06;91.56
18500;BME280;9379;52.134;11.576;2023-02-12T12:20:31;103157.84;;;12.54;92.26
18500;BME280;9379;52.134;11.576;2023-02-12T12:23:02;103150.44;;;12.75;91.53
18500;BME280;9379;52.134;11.576;2023-02-12T12:25:34;103137.34;;;12.86;90.36
18500;BME280;9379;52.134;11.576;2023-02-12T12:28:13;103147.31;;;12.35;91.91
18500;BME280;9379;52.134;11.576;2023-02-12T12:30:53;103154.03;;;12.42;93.46
18500;BME280;9379;52.134;11.576;2023-02-12T12:33:29;103151.00;;;12.48;92.47
18500;BME280;9379;52.134;11.576;2023-02-12T12:36:27;103149.59;;;12.10;92.31
18500;BME280;9379;52.134;11.576;2023-02-12T12:39:02;103146.38;;;12.36;92.52
18500;BME280;9379;52.134;11.576;2023-02-12T12:41:42;103142.16;;;12.48;91.77
18500;BME280;9379;52.134;11.576;2023-02-12T12:44:24;103143.88;;;12.80;90.69
18500;BME280;9379;52.134;11.576;2023-02-12T12:47:06;103143.00;;;12.80;90.82
18500;BME280;9379;52.134;11.576;2023-02-12T12:49:57;103138.47;;;12.66;91.96
18500;BME280;9379;52.134;11.576;2023-02-12T12:52:52;103134.81;;;12.83;90.21
18500;BME280;9379;52.134;11.576;2023-02-12T12:55:39;103131.28;;;12.98;90.09
18500;BME280;9379;52.134;11.576;2023-02-12T12:58:13;103116.75;;;12.88;90.40
18500;BME280;9379;52.134;11.576;2023-02-12T13:00:55;103125.50;;;13.22;89.40
18500;BME280;9379;52.134;11.576;2023-02-12T13:03:46;103125.72;;;13.17;89.14
18500;BME280;9379;52.134;11.576;2023-02-12T13:06:29;103122.53;;;13.26;88.85
18500;BME280;9379;52.134;11.576;2023-02-12T13:15:03;103113.88;;;13.23;88.52
18500;BME280;9379;52.134;11.576;2023-02-12T13:17:38;103118.41;;;12.43;91.91
18500;BME280;9379;52.134;11.576;2023-02-12T13:20:16;103109.88;;;12.68;91.76
18500;BME280;9379;52.134;11.576;2023-02-12T13:22:52;103117.81;;;13.15;90.43
18500;BME280;9379;52.134;11.576;2023-02-12T13:25:27;103091.84;;;13.18;89.38